createdAt,value
2023-02-11T01:40:27.242Z,55.40
2023-02-11T01:46:40.307Z,55.30
2023-02-11T01:52:07.271Z,55.40
2023-02-11T01:57:34.275Z,55.40
2023-02-11T02:03:04.278Z,55.40
2023-02-11T02:08:36.241Z,55.60
2023-02-11T02:14:01.271Z,55.60
2023-02-11T02:20:06.279Z,55.60
2023-02-11T02:25:52.416Z,56.00
2023-02-11T02:31:40.315Z,55.80
2023-02-11T02:37:12.275Z,56.50
2023-02-11T02:42:36.273Z,55.70
2023-02-11T02:47:59.272Z,55.50
2023-02-11T02:53:39.286Z,55.60
2023-02-11T02:59:17.281Z,55.60
2023-02-11T03:04:50.299Z,55.60
2023-02-11T03:10:20.314Z,55.60
2023-02-11T03:15:47.325Z,55.50
2023-02-11T03:21:12.294Z,55.30
2023-02-11T03:26:43.288Z,55.40
2023-02-11T03:32:12.471Z,55.40
2023-02-11T03:37:40.320Z,55.60
2023-02-11T03:43:08.311Z,55.60
2023-02-11T03:48:35.343Z,55.60
2023-02-11T03:54:02.325Z,55.60
2023-02-11T03:59:27.334Z,55.70
2023-02-11T04:04:50.328Z,55.60
2023-02-11T04:10:13.352Z,55.70
2023-02-11T04:15:44.359Z,55.60
2023-02-11T04:21:07.346Z,55.60
2023-02-11T04:26:30.344Z,55.60
2023-02-11T04:31:55.402Z,56.10
2023-02-11T04:37:19.345Z,55.50
2023-02-11T04:42:42.364Z,55.40
2023-02-11T04:48:07.368Z,55.50
2023-02-11T04:53:30.352Z,55.40
2023-02-11T04:58:53.363Z,55.50
2023-02-11T05:04:18.409Z,55.30
2023-02-11T05:09:41.356Z,55.40
2023-02-11T05:15:04.360Z,55.20
2023-02-11T05:20:29.370Z,55.40
2023-02-11T05:25:52.631Z,55.40
2023-02-11T05:31:16.408Z,55.40
2023-02-11T05:36:41.407Z,55.10
2023-02-11T05:42:11.355Z,55.00
2023-02-11T05:47:34.388Z,55.10
2023-02-11T05:52:59.374Z,55.20
2023-02-11T05:58:22.402Z,55.20
2023-02-11T06:03:45.418Z,55.20
2023-02-11T06:09:10.363Z,55.00
2023-02-11T06:14:34.365Z,55.20
2023-02-11T06:19:57.397Z,55.20
2023-02-11T06:25:22.392Z,55.50
2023-02-11T06:30:45.444Z,55.50
2023-02-11T06:36:08.369Z,55.60
2023-02-11T06:41:39.391Z,55.60
2023-02-11T06:47:02.407Z,55.70
2023-02-11T06:52:25.404Z,55.80
2023-02-11T06:57:50.395Z,55.90
2023-02-11T07:03:13.494Z,56.00
2023-02-11T07:08:36.411Z,55.90
2023-02-11T07:14:01.408Z,56.10
2023-02-11T07:19:24.428Z,56.00
2023-02-11T07:24:47.429Z,56.20
2023-02-11T07:30:12.420Z,56.00
2023-02-11T07:35:35.423Z,56.20
2023-02-11T07:40:58.413Z,56.10
2023-02-11T07:46:25.502Z,56.50
2023-02-11T07:51:48.439Z,56.30
2023-02-11T07:57:11.435Z,56.50
2023-02-11T08:02:36.475Z,56.20
2023-02-11T08:07:59.452Z,56.40
2023-02-11T08:13:22.419Z,56.30
2023-02-11T08:18:47.447Z,56.40
2023-02-11T08:24:11.430Z,56.40
2023-02-11T08:29:34.487Z,56.50
2023-02-11T08:35:00.463Z,56.40
2023-02-11T08:40:24.455Z,56.40
2023-02-11T08:45:47.515Z,56.40
2023-02-11T08:51:12.462Z,56.60
2023-02-11T08:56:37.509Z,56.70
2023-02-11T09:02:00.517Z,56.70
2023-02-11T09:07:25.480Z,56.60
2023-02-11T09:12:48.474Z,56.70
2023-02-11T09:18:12.473Z,56.60
2023-02-11T09:23:36.460Z,56.80
2023-02-11T09:28:59.487Z,56.60
2023-02-11T09:34:22.482Z,56.90
2023-02-11T09:39:47.493Z,56.80
2023-02-11T09:45:11.496Z,56.90
2023-02-11T09:50:38.500Z,57.00
2023-02-11T09:56:06.536Z,57.20
2023-02-11T10:01:38.528Z,57.20
2023-02-11T10:07:04.506Z,57.30
2023-02-11T10:12:54.528Z,57.30
2023-02-11T10:18:38.525Z,57.40
2023-02-11T10:24:06.852Z,57.40
2023-02-11T10:29:45.515Z,57.40
2023-02-11T10:35:11.536Z,57.40
2023-02-11T10:40:36.533Z,57.50
2023-02-11T10:46:02.557Z,57.30
2023-02-11T10:51:36.537Z,57.50
2023-02-11T10:57:07.533Z,57.80
2023-02-11T11:02:40.920Z,57.80
2023-02-11T11:08:05.524Z,57.70
2023-02-11T11:13:43.539Z,57.80
2023-02-11T11:19:29.537Z,57.90
2023-02-11T11:25:00.564Z,57.90
2023-02-11T11:30:24.551Z,57.70
2023-02-11T11:35:49.591Z,58.00
2023-02-11T11:41:35.577Z,57.90
2023-02-11T11:47:20.530Z,58.10
2023-02-11T11:52:54.544Z,58.20
2023-02-11T11:58:23.559Z,58.10
2023-02-11T12:04:22.567Z,58.20
2023-02-11T12:10:07.566Z,58.00
2023-02-11T12:15:40.573Z,58.10
2023-02-11T12:21:18.542Z,58.30
2023-02-11T12:26:50.552Z,58.10
2023-02-11T12:32:32.584Z,58.40
2023-02-11T12:38:25.581Z,58.20
2023-02-11T12:43:52.604Z,58.40
2023-02-11T12:49:39.611Z,58.30
2023-02-11T12:55:10.588Z,58.50
2023-02-11T13:00:48.883Z,58.30
2023-02-11T13:06:16.592Z,58.50
2023-02-11T13:11:46.576Z,58.20
2023-02-11T13:17:11.612Z,58.50
2023-02-11T13:22:41.612Z,58.40
2023-02-11T13:28:13.635Z,58.60
2023-02-11T13:33:45.651Z,58.70
2023-02-11T13:39:12.592Z,58.90
2023-02-11T13:44:36.600Z,58.60
2023-02-11T13:50:05.610Z,58.80
2023-02-11T13:55:31.624Z,59.00
2023-02-11T14:01:00.626Z,58.90
2023-02-11T14:06:46.622Z,58.80
2023-02-11T14:12:53.621Z,58.90
2023-02-11T14:24:47.964Z,59.10
2023-02-11T14:30:40.079Z,59.00
2023-02-11T14:36:16.947Z,58.90
2023-02-11T14:41:48.950Z,59.00
2023-02-11T14:47:12.952Z,59.00
2023-02-11T14:52:37.980Z,58.60
2023-02-11T14:58:02.983Z,59.00
2023-02-11T15:03:37.966Z,58.90
2023-02-11T15:09:06.996Z,59.10
2023-02-11T15:14:34.004Z,58.80
2023-02-11T15:20:02.138Z,59.10
2023-02-11T15:25:27.007Z,59.00
2023-02-11T15:30:51.472Z,59.10
2023-02-11T15:36:18.000Z,58.90
2023-02-11T15:41:51.979Z,59.00
2023-02-11T15:47:19.002Z,59.10
2023-02-11T15:52:42.981Z,59.00
2023-02-11T15:58:09.016Z,58.70
2023-02-11T16:03:39.006Z,59.10
2023-02-11T16:09:08.008Z,59.10
2023-02-11T16:14:37.009Z,59.20
2023-02-11T16:20:02.171Z,59.00
2023-02-11T16:25:34.037Z,59.10
2023-02-11T16:31:02.642Z,59.10
2023-02-11T16:36:30.080Z,59.00
2023-02-11T16:41:53.016Z,59.00
2023-02-11T16:47:18.004Z,59.10
2023-02-11T16:52:44.007Z,58.90
2023-02-11T16:58:07.018Z,59.20
2023-02-11T17:03:34.068Z,59.00
2023-02-11T17:08:58.065Z,59.10
2023-02-11T17:14:21.086Z,59.10
2023-02-11T17:19:44.038Z,59.20
2023-02-11T17:25:09.036Z,58.90
2023-02-11T17:30:33.126Z,59.20
2023-02-11T17:35:56.052Z,59.00
2023-02-11T17:41:21.060Z,59.40
2023-02-11T17:46:44.069Z,59.20
2023-02-11T17:52:07.056Z,59.50
2023-02-11T17:57:32.055Z,59.30
2023-02-11T18:03:02.108Z,59.50
2023-02-11T18:08:32.082Z,59.60
2023-02-11T18:14:01.070Z,59.50
2023-02-11T18:19:25.105Z,59.60
2023-02-11T18:24:55.096Z,59.40
2023-02-11T18:30:24.070Z,59.60
2023-02-11T18:35:47.098Z,59.60
2023-02-11T18:41:11.271Z,59.40
2023-02-11T18:46:36.117Z,59.70
2023-02-11T18:51:59.108Z,59.50
2023-02-11T18:57:22.108Z,59.70
2023-02-11T19:02:47.169Z,59.50
2023-02-11T19:08:11.110Z,59.80
2023-02-11T19:13:36.102Z,59.50
2023-02-11T19:19:01.123Z,59.90
2023-02-11T19:24:32.132Z,59.60
2023-02-11T19:29:55.114Z,59.80
2023-02-11T19:35:20.105Z,59.70
2023-02-11T19:40:43.178Z,59.60
2023-02-11T19:46:06.157Z,59.80
2023-02-11T19:51:31.131Z,59.50
2023-02-11T19:56:54.163Z,59.80
2023-02-11T20:02:18.142Z,59.50
2023-02-11T20:07:43.152Z,59.70
2023-02-11T20:13:06.170Z,59.50
2023-02-11T20:18:29.173Z,59.70
2023-02-11T20:23:55.180Z,59.50
2023-02-11T20:29:18.190Z,59.80
2023-02-11T20:34:41.159Z,59.50
2023-02-11T20:40:05.141Z,59.70
2023-02-11T20:45:28.136Z,59.50
2023-02-11T20:50:51.201Z,59.70
2023-02-11T20:56:19.176Z,59.50
2023-02-11T21:01:46.205Z,59.90
2023-02-11T21:07:10.155Z,60.30
2023-02-11T21:12:35.192Z,59.70
2023-02-11T21:17:59.186Z,59.50
2023-02-11T21:23:22.174Z,59.70
2023-02-11T21:28:47.188Z,59.40
2023-02-11T21:34:11.182Z,59.70
2023-02-11T21:39:34.189Z,59.50
2023-02-11T21:44:59.179Z,59.80
2023-02-11T21:50:22.197Z,59.70
2023-02-11T21:55:45.486Z,59.90
2023-02-11T22:01:10.279Z,59.60
2023-02-11T22:06:37.188Z,59.90
2023-02-11T22:12:00.242Z,59.70
2023-02-11T22:17:25.253Z,60.00
2023-02-11T22:22:48.226Z,59.70
2023-02-11T22:28:04.269Z,60.00
2023-02-11T22:33:29.260Z,59.70
2023-02-11T22:38:53.301Z,59.80
2023-02-11T22:44:19.243Z,60.70
2023-02-11T22:49:44.240Z,59.80
2023-02-11T22:55:07.273Z,60.00
2023-02-11T23:00:32.254Z,59.70
2023-02-11T23:05:57.344Z,60.20
2023-02-11T23:11:23.271Z,59.90
2023-02-11T23:16:49.279Z,60.00
2023-02-11T23:22:14.263Z,60.00
2023-02-11T23:27:37.385Z,60.10
2023-02-11T23:33:00.273Z,59.80
2023-02-11T23:38:25.342Z,60.10
2023-02-11T23:43:49.265Z,59.90
2023-02-11T23:49:12.261Z,60.00
2023-02-11T23:54:37.271Z,59.80
